KREG

Louisiana Regional Airport

Gonzales, Louisiana, USA
METAR KREG 191655Z AUTO 23004KT 10SM CLR 30/24 A2998 RMK AO2 T02970242 TSNO
Observed Flight Rules
Aug-19 @ 16:55 UTC (18 minutes ago) Visual Flight Rules
Wind Visibility Clouds
230° at 4 knots 10 miles
  • Clear skies
Temperatures Readings
Current 30°C / 86°F
Dewpoint 24°C / 75°F
Humidity 70%
Altimeter 29.98" Hg
Pressure 1015 hPa
Elevation 4
METAR KREG 191655Z AUTO 23004KT 10SM CLR 30/24 A2998 RMK AO2 T02970242 TSNO
Observed Flight Rules
Aug-19 @ 16:55 UTC
(18 minutes ago)
VFR
Wind Visibility
230° at 4 knots 10 miles
Clouds
  • Clear skies
Temperature Dewpoint
30°C / 86°F 24°C / 75°F
Humidity Altimeter Pressure
70% 29.98" Hg 1015 hPa